sensor_id;sensor_type;location;lat;lon;timestamp;temperature;humidity
75088;HTU21D;63664;44.868;40.600;2023-03-08T00:01:12;4.15;80.02
75088;HTU21D;63664;44.868;40.600;2023-03-08T00:03:42;4.17;79.95
75088;HTU21D;63664;44.868;40.600;2023-03-08T00:06:13;4.21;79.98
75088;HTU21D;63664;44.868;40.600;2023-03-08T00:08:42;4.23;80.03
75088;HTU21D;63664;44.868;40.600;2023-03-08T00:11:10;4.26;79.98
75088;HTU21D;63664;44.868;40.600;2023-03-08T00:13:38;4.30;79.92
75088;HTU21D;63664;44.868;40.600;2023-03-08T00:16:06;4.33;79.88
75088;HTU21D;63664;44.868;40.600;2023-03-08T00:18:34;4.34;79.87
75088;HTU21D;63664;44.868;40.600;2023-03-08T00:21:05;4.38;79.85
75088;HTU21D;63664;44.868;40.600;2023-03-08T00:23:32;4.42;79.86
75088;HTU21D;63664;44.868;40.600;2023-03-08T00:25:58;4.44;79.83
75088;HTU21D;63664;44.868;40.600;2023-03-08T00:28:25;4.44;79.82
75088;HTU21D;63664;44.868;40.600;2023-03-08T00:31:00;4.45;79.89
75088;HTU21D;63664;44.868;40.600;2023-03-08T00:33:30;4.46;79.90
75088;HTU21D;63664;44.868;40.600;2023-03-08T00:35:58;4.47;79.84
75088;HTU21D;63664;44.868;40.600;2023-03-08T00:38:32;4.46;79.71
75088;HTU21D;63664;44.868;40.600;2023-03-08T00:41:01;4.46;79.82
75088;HTU21D;63664;44.868;40.600;2023-03-08T00:43:30;4.46;79.87
75088;HTU21D;63664;44.868;40.600;2023-03-08T00:45:59;4.46;79.91
75088;HTU21D;63664;44.868;40.600;2023-03-08T00:48:28;4.46;80.04
75088;HTU21D;63664;44.868;40.600;2023-03-08T00:50:54;4.46;80.01
75088;HTU21D;63664;44.868;40.600;2023-03-08T00:53:25;4.47;80.01
75088;HTU21D;63664;44.868;40.600;2023-03-08T00:55:56;4.48;80.04
75088;HTU21D;63664;44.868;40.600;2023-03-08T00:58:26;4.50;80.03
75088;HTU21D;63664;44.868;40.600;2023-03-08T01:00:55;4.51;80.02
75088;HTU21D;63664;44.868;40.600;2023-03-08T01:03:24;4.48;80.05
75088;HTU21D;63664;44.868;40.600;2023-03-08T01:05:55;4.46;80.10
75088;HTU21D;63664;44.868;40.600;2023-03-08T01:08:22;4.46;80.12
75088;HTU21D;63664;44.868;40.600;2023-03-08T01:10:54;4.42;79.96
75088;HTU21D;63664;44.868;40.600;2023-03-08T01:13:33;4.39;80.07
75088;HTU21D;63664;44.868;40.600;2023-03-08T01:16:02;4.37;80.12
75088;HTU21D;63664;44.868;40.600;2023-03-08T01:18:31;4.34;80.01
75088;HTU21D;63664;44.868;40.600;2023-03-08T01:21:02;4.32;80.16
75088;HTU21D;63664;44.868;40.600;2023-03-08T01:23:30;4.31;80.23
75088;HTU21D;63664;44.868;40.600;2023-03-08T01:26:06;4.32;80.30
75088;HTU21D;63664;44.868;40.600;2023-03-08T01:28:34;4.32;80.33
75088;HTU21D;63664;44.868;40.600;2023-03-08T01:31:03;4.33;80.38
75088;HTU21D;63664;44.868;40.600;2023-03-08T01:33:35;4.34;80.40
75088;HTU21D;63664;44.868;40.600;2023-03-08T01:36:10;4.32;80.52
75088;HTU21D;63664;44.868;40.600;2023-03-08T01:38:36;4.30;80.56
75088;HTU21D;63664;44.868;40.600;2023-03-08T01:41:07;4.29;80.65
75088;HTU21D;63664;44.868;40.600;2023-03-08T01:43:36;4.26;80.73
75088;HTU21D;63664;44.868;40.600;2023-03-08T01:54:06;4.20;80.84
75088;HTU21D;63664;44.868;40.600;2023-03-08T01:56:34;4.17;80.76
75088;HTU21D;63664;44.868;40.600;2023-03-08T01:59:05;4.14;80.91
75088;HTU21D;63664;44.868;40.600;2023-03-08T02:01:38;4.13;81.05
75088;HTU21D;63664;44.868;40.600;2023-03-08T02:04:06;4.14;81.14
75088;HTU21D;63664;44.868;40.600;2023-03-08T02:06:33;4.16;81.20
75088;HTU21D;63664;44.868;40.600;2023-03-08T02:09:00;4.16;81.22
75088;HTU21D;63664;44.868;40.600;2023-03-08T02:11:33;4.15;81.30
75088;HTU21D;63664;44.868;40.600;2023-03-08T02:14:02;4.16;81.33
75088;HTU21D;63664;44.868;40.600;2023-03-08T02:16:31;4.15;81.42
75088;HTU21D;63664;44.868;40.600;2023-03-08T02:19:09;4.12;81.46
75088;HTU21D;63664;44.868;40.600;2023-03-08T02:21:38;4.07;81.44
75088;HTU21D;63664;44.868;40.600;2023-03-08T02:24:27;4.04;81.55
75088;HTU21D;63664;44.868;40.600;2023-03-08T02:27:00;4.01;81.65
75088;HTU21D;63664;44.868;40.600;2023-03-08T02:29:27;4.00;81.65
75088;HTU21D;63664;44.868;40.600;2023-03-08T02:31:53;4.00;81.68
75088;HTU21D;63664;44.868;40.600;2023-03-08T02:34:22;3.99;81.72
75088;HTU21D;63664;44.868;40.600;2023-03-08T02:36:48;3.97;81.72
75088;HTU21D;63664;44.868;40.600;2023-03-08T02:39:16;3.95;81.78
75088;HTU21D;63664;44.868;40.600;2023-03-08T02:41:48;3.94;81.84
75088;HTU21D;63664;44.868;40.600;2023-03-08T02:44:19;3.93;81.84
75088;HTU21D;63664;44.868;40.600;2023-03-08T02:46:45;3.92;81.87
75088;HTU21D;63664;44.868;40.600;2023-03-08T02:49:17;3.91;81.88
75088;HTU21D;63664;44.868;40.600;2023-03-08T02:51:47;3.88;81.92
75088;HTU21D;63664;44.868;40.600;2023-03-08T02:54:13;3.89;81.95
75088;HTU21D;63664;44.868;40.600;2023-03-08T02:56:40;3.88;81.97
75088;HTU21D;63664;44.868;40.600;2023-03-08T02:59:08;3.88;81.99
75088;HTU21D;63664;44.868;40.600;2023-03-08T03:01:35;3.86;82.04
75088;HTU21D;63664;44.868;40.600;2023-03-08T03:04:01;3.84;82.03
75088;HTU21D;63664;44.868;40.600;2023-03-08T03:06:32;3.77;82.03
75088;HTU21D;63664;44.868;40.600;2023-03-08T03:09:05;3.71;82.14
75088;HTU21D;63664;44.868;40.600;2023-03-08T03:11:35;3.68;82.16
75088;HTU21D;63664;44.868;40.600;2023-03-08T03:14:04;3.62;82.23
75088;HTU21D;63664;44.868;40.600;2023-03-08T03:16:41;3.60;82.31
75088;HTU21D;63664;44.868;40.600;2023-03-08T03:19:12;3.57;82.36
75088;HTU21D;63664;44.868;40.600;2023-03-08T03:21:41;3.57;82.40
75088;HTU21D;63664;44.868;40.600;2023-03-08T03:24:07;3.55;82.44
75088;HTU21D;63664;44.868;40.600;2023-03-08T03:26:50;3.57;82.45
75088;HTU21D;63664;44.868;40.600;2023-03-08T03:29:20;3.54;82.44
75088;HTU21D;63664;44.868;40.600;2023-03-08T03:31:53;3.50;82.54
75088;HTU21D;63664;44.868;40.600;2023-03-08T03:34:20;3.47;82.53
75088;HTU21D;63664;44.868;40.600;2023-03-08T03:36:50;3.41;82.55
75088;HTU21D;63664;44.868;40.600;2023-03-08T03:39:16;3.38;82.65
75088;HTU21D;63664;44.868;40.600;2023-03-08T03:41:44;3.34;82.74
75088;HTU21D;63664;44.868;40.600;2023-03-08T03:44:13;3.35;82.84
75088;HTU21D;63664;44.868;40.600;2023-03-08T03:46:41;3.36;82.88
75088;HTU21D;63664;44.868;40.600;2023-03-08T03:49:10;3.38;82.91
75088;HTU21D;63664;44.868;40.600;2023-03-08T03:51:39;3.35;82.90
75088;HTU21D;63664;44.868;40.600;2023-03-08T03:54:14;3.35;82.94
75088;HTU21D;63664;44.868;40.600;2023-03-08T03:56:43;3.34;83.00
75088;HTU21D;63664;44.868;40.600;2023-03-08T03:59:12;3.38;83.03
75088;HTU21D;63664;44.868;40.600;2023-03-08T04:01:38;3.40;83.03
75088;HTU21D;63664;44.868;40.600;2023-03-08T04:04:16;3.41;83.04
75088;HTU21D;63664;44.868;40.600;2023-03-08T04:06:45;3.42;83.03
75088;HTU21D;63664;44.868;40.600;2023-03-08T04:09:18;3.43;83.13
75088;HTU21D;63664;44.868;40.600;2023-03-08T04:11:54;3.45;83.15
75088;HTU21D;63664;44.868;40.600;2023-03-08T04:14:23;3.43;83.17
75088;HTU21D;63664;44.868;40.600;2023-03-08T04:16:54;3.46;83.27
75088;HTU21D;63664;44.868;40.600;2023-03-08T04:19:32;3.49;83.29
75088;HTU21D;63664;44.868;40.600;2023-03-08T04:21:59;3.52;83.36
75088;HTU21D;63664;44.868;40.600;2023-03-08T04:24:32;3.55;83.37
75088;HTU21D;63664;44.868;40.600;2023-03-08T04:27:11;3.59;83.37
75088;HTU21D;63664;44.868;40.600;2023-03-08T04:29:38;3.62;83.42
75088;HTU21D;63664;44.868;40.600;2023-03-08T04:32:05;3.68;83.42
75088;HTU21D;63664;44.868;40.600;2023-03-08T04:34:52;3.74;83.39
75088;HTU21D;63664;44.868;40.600;2023-03-08T04:37:24;3.79;83.41
75088;HTU21D;63664;44.868;40.600;2023-03-08T04:39:55;3.87;83.36
75088;HTU21D;63664;44.868;40.600;2023-03-08T04:42:23;3.94;83.37
75088;HTU21D;63664;44.868;40.600;2023-03-08T04:44:49;4.02;83.35
75088;HTU21D;63664;44.868;40.600;2023-03-08T04:47:21;4.08;83.34
75088;HTU21D;63664;44.868;40.600;2023-03-08T04:49:49;4.14;83.29
75088;HTU21D;63664;44.868;40.600;2023-03-08T04:52:16;4.21;83.27
75088;HTU21D;63664;44.868;40.600;2023-03-08T04:54:46;4.28;83.22
75088;HTU21D;63664;44.868;40.600;2023-03-08T04:57:26;4.32;83.18
75088;HTU21D;63664;44.868;40.600;2023-03-08T04:59:55;4.36;83.18
75088;HTU21D;63664;44.868;40.600;2023-03-08T05:02:28;4.44;83.16
75088;HTU21D;63664;44.868;40.600;2023-03-08T05:04:57;4.51;83.12
75088;HTU21D;63664;44.868;40.600;2023-03-08T05:07:26;4.58;83.07
75088;HTU21D;63664;44.868;40.600;2023-03-08T05:09:56;4.65;83.00
75088;HTU21D;63664;44.868;40.600;2023-03-08T05:12:23;4.76;82.99
75088;HTU21D;63664;44.868;40.600;2023-03-08T05:15:00;4.86;82.81
75088;HTU21D;63664;44.868;40.600;2023-03-08T05:17:27;4.93;82.71
75088;HTU21D;63664;44.868;40.600;2023-03-08T05:19:57;5.02;82.61
75088;HTU21D;63664;44.868;40.600;2023-03-08T05:22:34;5.08;82.57
75088;HTU21D;63664;44.868;40.600;2023-03-08T05:25:04;5.16;82.46
75088;HTU21D;63664;44.868;40.600;2023-03-08T05:27:36;5.25;82.36
75088;HTU21D;63664;44.868;40.600;2023-03-08T05:30:07;5.37;82.26
75088;HTU21D;63664;44.868;40.600;2023-03-08T05:32:39;5.53;82.17
75088;HTU21D;63664;44.868;40.600;2023-03-08T05:35:08;5.69;82.01
75088;HTU21D;63664;44.868;40.600;2023-03-08T05:37:37;5.83;81.70
75088;HTU21D;63664;44.868;40.600;2023-03-08T05:40:04;5.93;81.56
75088;HTU21D;63664;44.868;40.600;2023-03-08T05:42:38;6.06;81.40
75088;HTU21D;63664;44.868;40.600;2023-03-08T05:45:05;6.21;81.19
75088;HTU21D;63664;44.868;40.600;2023-03-08T05:47:38;6.38;80.94
75088;HTU21D;63664;44.868;40.600;2023-03-08T05:50:12;6.54;80.71
75088;HTU21D;63664;44.868;40.600;2023-03-08T05:52:41;6.70;80.55
75088;HTU21D;63664;44.868;40.600;2023-03-08T05:55:17;6.82;80.30
75088;HTU21D;63664;44.868;40.600;2023-03-08T05:57:49;6.91;80.08
75088;HTU21D;63664;44.868;40.600;2023-03-08T06:00:16;7.03;79.98
75088;HTU21D;63664;44.868;40.600;2023-03-08T06:02:51;7.20;79.79
75088;HTU21D;63664;44.868;40.600;2023-03-08T06:05:19;7.35;79.49
75088;HTU21D;63664;44.868;40.600;2023-03-08T06:07:49;7.49;79.21
75088;HTU21D;63664;44.868;40.600;2023-03-08T06:10:21;7.58;78.99
75088;HTU21D;63664;44.868;40.600;2023-03-08T06:12:54;7.71;78.82
75088;HTU21D;63664;44.868;40.600;2023-03-08T06:15:23;7.86;78.50
75088;HTU21D;63664;44.868;40.600;2023-03-08T06:17:53;7.97;78.26
75088;HTU21D;63664;44.868;40.600;2023-03-08T06:20:24;8.07;78.00
75088;HTU21D;63664;44.868;40.600;2023-03-08T06:22:59;8.20;77.78
75088;HTU21D;63664;44.868;40.600;2023-03-08T06:25:26;8.38;77.53
75088;HTU21D;63664;44.868;40.600;2023-03-08T06:27:56;8.58;77.11
75088;HTU21D;63664;44.868;40.600;2023-03-08T06:30:32;8.73;76.72
75088;HTU21D;63664;44.868;40.600;2023-03-08T06:33:01;8.85;76.35
75088;HTU21D;63664;44.868;40.600;2023-03-08T06:35:27;8.91;76.18
75088;HTU21D;63664;44.868;40.600;2023-03-08T06:37:59;9.00;76.14
75088;HTU21D;63664;44.868;40.600;2023-03-08T06:40:29;9.09;75.92
75088;HTU21D;63664;44.868;40.600;2023-03-08T06:42:55;9.18;75.76
75088;HTU21D;63664;44.868;40.600;2023-03-08T06:45:21;9.26;75.58
75088;HTU21D;63664;44.868;40.600;2023-03-08T06:47:47;9.39;75.40
75088;HTU21D;63664;44.868;40.600;2023-03-08T06:50:17;9.49;75.15
75088;HTU21D;63664;44.868;40.600;2023-03-08T06:52:50;9.57;75.02
75088;HTU21D;63664;44.868;40.600;2023-03-08T06:55:25;9.69;74.89
75088;HTU21D;63664;44.868;40.600;2023-03-08T06:57:51;9.79;74.56
75088;HTU21D;63664;44.868;40.600;2023-03-08T07:00:21;9.88;74.53
75088;HTU21D;63664;44.868;40.600;2023-03-08T07:02:48;10.04;74.27
75088;HTU21D;63664;44.868;40.600;2023-03-08T07:05:15;10.19;73.94
75088;HTU21D;63664;44.868;40.600;2023-03-08T07:07:42;10.29;73.70
75088;HTU21D;63664;44.868;40.600;2023-03-08T07:10:09;10.38;73.44
75088;HTU21D;63664;44.868;40.600;2023-03-08T07:12:39;10.44;73.22
75088;HTU21D;63664;44.868;40.600;2023-03-08T07:15:12;10.59;73.17
75088;HTU21D;63664;44.868;40.600;2023-03-08T07:17:48;10.81;72.77
75088;HTU21D;63664;44.868;40.600;2023-03-08T07:20:19;11.02;72.29
75088;HTU21D;63664;44.868;40.600;2023-03-08T07:22:46;11.23;71.85
75088;HTU21D;63664;44.868;40.600;2023-03-08T07:25:19;11.42;71.49
75088;HTU21D;63664;44.868;40.600;2023-03-08T07:27:46;11.62;71.06
75088;HTU21D;63664;44.868;40.600;2023-03-08T07:30:14;11.78;70.41
75088;HTU21D;63664;44.868;40.600;2023-03-08T07:32:41;11.98;70.23
75088;HTU21D;63664;44.868;40.600;2023-03-08T07:35:10;12.25;69.58
75088;HTU21D;63664;44.868;40.600;2023-03-08T07:37:39;12.53;68.78
75088;HTU21D;63664;44.868;40.600;2023-03-08T07:40:12;12.78;68.04
75088;HTU21D;63664;44.868;40.600;2023-03-08T07:42:39;13.09;67.59
75088;HTU21D;63664;44.868;40.600;2023-03-08T07:45:39;13.36;66.56
75088;HTU21D;63664;44.868;40.600;2023-03-08T07:48:08;13.55;66.12
75088;HTU21D;63664;44.868;40.600;2023-03-08T07:50:37;13.76;65.71
75088;HTU21D;63664;44.868;40.600;2023-03-08T07:53:06;13.93;64.92
75088;HTU21D;63664;44.868;40.600;2023-03-08T07:55:33;14.13;64.38
75088;HTU21D;63664;44.868;40.600;2023-03-08T07:57:59;14.29;63.98
75088;HTU21D;63664;44.868;40.600;2023-03-08T08:00:28;14.45;63.63
75088;HTU21D;63664;44.868;40.600;2023-03-08T08:02:56;14.57;63.32
75088;HTU21D;63664;44.868;40.600;2023-03-08T08:05:23;14.67;62.99
75088;HTU21D;63664;44.868;40.600;2023-03-08T08:07:54;14.80;62.71
75088;HTU21D;63664;44.868;40.600;2023-03-08T08:10:20;14.97;62.15
75088;HTU21D;63664;44.868;40.600;2023-03-08T08:12:46;15.13;61.41
75088;HTU21D;63664;44.868;40.600;2023-03-08T08:15:16;15.27;60.71
75088;HTU21D;63664;44.868;40.600;2023-03-08T08:17:42;15.45;60.62
75088;HTU21D;63664;44.868;40.600;2023-03-08T08:20:11;15.66;59.85
75088;HTU21D;63664;44.868;40.600;2023-03-08T08:22:37;15.86;59.31
75088;HTU21D;63664;44.868;40.600;2023-03-08T08:25:09;16.06;58.87
75088;HTU21D;63664;44.868;40.600;2023-03-08T08:27:38;16.28;57.21
75088;HTU21D;63664;44.868;40.600;2023-03-08T08:30:14;16.35;55.91
75088;HTU21D;63664;44.868;40.600;2023-03-08T08:32:43;16.48;55.82
75088;HTU21D;63664;44.868;40.600;2023-03-08T08:35:17;16.56;54.38
75088;HTU21D;63664;44.868;40.600;2023-03-08T08:37:43;16.58;53.94
75088;HTU21D;63664;44.868;40.600;2023-03-08T08:40:10;16.71;53.52
75088;HTU21D;63664;44.868;40.600;2023-03-08T08:42:40;16.71;53.25
75088;HTU21D;63664;44.868;40.600;2023-03-08T08:45:09;16.84;52.69
75088;HTU21D;63664;44.868;40.600;2023-03-08T08:47:36;16.86;52.57
75088;HTU21D;63664;44.868;40.600;2023-03-08T08:50:05;17.06;51.64
75088;HTU21D;63664;44.868;40.600;2023-03-08T08:52:31;17.23;51.22
75088;HTU21D;63664;44.868;40.600;2023-03-08T08:54:59;17.33;50.92
75088;HTU21D;63664;44.868;40.600;2023-03-08T08:57:26;17.35;51.22
75088;HTU21D;63664;44.868;40.600;2023-03-08T08:59:55;17.52;51.41
75088;HTU21D;63664;44.868;40.600;2023-03-08T09:02:22;17.68;49.21
75088;HTU21D;63664;44.868;40.600;2023-03-08T09:04:52;17.60;49.11
75088;HTU21D;63664;44.868;40.600;2023-03-08T09:07:18;17.67;49.26
75088;HTU21D;63664;44.868;40.600;2023-03-08T09:09:44;17.83;49.11
75088;HTU21D;63664;44.868;40.600;2023-03-08T09:12:11;17.99;48.83
75088;HTU21D;63664;44.868;40.600;2023-03-08T09:14:37;18.17;48.43
75088;HTU21D;63664;44.868;40.600;2023-03-08T09:17:05;18.37;47.70
75088;HTU21D;63664;44.868;40.600;2023-03-08T09:19:34;18.44;47.26
75088;HTU21D;63664;44.868;40.600;2023-03-08T09:22:01;18.52;46.08
75088;HTU21D;63664;44.868;40.600;2023-03-08T09:24:30;18.52;46.18
75088;HTU21D;63664;44.868;40.600;2023-03-08T09:26:56;18.64;46.12
75088;HTU21D;63664;44.868;40.600;2023-03-08T09:29:25;18.70;45.73
75088;HTU21D;63664;44.868;40.600;2023-03-08T09:31:54;18.78;44.98
75088;HTU21D;63664;44.868;40.600;2023-03-08T09:34:20;18.77;44.28
75088;HTU21D;63664;44.868;40.600;2023-03-08T09:36:49;18.78;43.44
75088;HTU21D;63664;44.868;40.600;2023-03-08T09:39:15;18.85;43.00
75088;HTU21D;63664;44.868;40.600;2023-03-08T09:47:41;19.24;41.93
75088;HTU21D;63664;44.868;40.600;2023-03-08T09:52:57;19.41;40.57
75088;HTU21D;63664;44.868;40.600;2023-03-08T09:55:34;19.39;40.02
75088;HTU21D;63664;44.868;40.600;2023-03-08T10:00:43;19.56;40.27
75088;HTU21D;63664;44.868;40.600;2023-03-08T10:03:38;19.65;39.59
75088;HTU21D;63664;44.868;40.600;2023-03-08T10:11:51;19.76;39.48
75088;HTU21D;63664;44.868;40.600;2023-03-08T10:14:35;19.96;39.39
75088;HTU21D;63664;44.868;40.600;2023-03-08T10:17:08;20.00;39.24
75088;HTU21D;63664;44.868;40.600;2023-03-08T10:19:50;20.09;38.67
75088;HTU21D;63664;44.868;40.600;2023-03-08T10:22:34;20.21;38.70
75088;HTU21D;63664;44.868;40.600;2023-03-08T10:25:21;20.35;38.00
75088;HTU21D;63664;44.868;40.600;2023-03-08T10:27:54;20.36;37.67
75088;HTU21D;63664;44.868;40.600;2023-03-08T10:30:30;20.43;37.82
75088;HTU21D;63664;44.868;40.600;2023-03-08T10:33:00;20.51;37.78
75088;HTU21D;63664;44.868;40.600;2023-03-08T10:38:30;20.57;37.29
75088;HTU21D;63664;44.868;40.600;2023-03-08T10:43:40;20.54;37.14
75088;HTU21D;63664;44.868;40.600;2023-03-08T10:46:19;20.59;37.01
75088;HTU21D;63664;44.868;40.600;2023-03-08T10:48:50;20.57;36.98
75088;HTU21D;63664;44.868;40.600;2023-03-08T10:51:26;20.59;36.13
75088;HTU21D;63664;44.868;40.600;2023-03-08T10:56:35;20.57;36.00
75088;HTU21D;63664;44.868;40.600;2023-03-08T10:59:04;20.54;35.85
75088;HTU21D;63664;44.868;40.600;2023-03-08T11:01:45;20.62;35.72
75088;HTU21D;63664;44.868;40.600;2023-03-08T11:04:20;20.61;35.50
75088;HTU21D;63664;44.868;40.600;2023-03-08T11:06:54;20.68;35.63
75088;HTU21D;63664;44.868;40.600;2023-03-08T11:09:30;20.69;35.36
75088;HTU21D;63664;44.868;40.600;2023-03-08T11:12:03;20.65;35.66
75088;HTU21D;63664;44.868;40.600;2023-03-08T11:14:32;20.73;35.24
75088;HTU21D;63664;44.868;40.600;2023-03-08T11:17:17;20.71;34.89
75088;HTU21D;63664;44.868;40.600;2023-03-08T11:20:12;20.68;34.27
75088;HTU21D;63664;44.868;40.600;2023-03-08T11:33:56;20.54;34.37
75088;HTU21D;63664;44.868;40.600;2023-03-08T11:36:42;20.53;33.98
75088;HTU21D;63664;44.868;40.600;2023-03-08T11:44:48;20.72;34.03
75088;HTU21D;63664;44.868;40.600;2023-03-08T11:47:59;20.72;34.05
75088;HTU21D;63664;44.868;40.600;2023-03-08T11:50:35;20.83;33.95
75088;HTU21D;63664;44.868;40.600;2023-03-08T11:58:50;20.80;33.70
75088;HTU21D;63664;44.868;40.600;2023-03-08T12:01:44;20.69;33.35
75088;HTU21D;63664;44.868;40.600;2023-03-08T12:04:40;20.61;33.36
75088;HTU21D;63664;44.868;40.600;2023-03-08T12:12:34;20.69;32.86
75088;HTU21D;63664;44.868;40.600;2023-03-08T12:15:42;20.69;32.72
75088;HTU21D;63664;44.868;40.600;2023-03-08T12:18:34;20.65;32.81
75088;HTU21D;63664;44.868;40.600;2023-03-08T12:26:52;20.53;33.05
75088;HTU21D;63664;44.868;40.600;2023-03-08T12:32:09;20.66;32.65
75088;HTU21D;63664;44.868;40.600;2023-03-08T12:34:42;20.66;32.76
75088;HTU21D;63664;44.868;40.600;2023-03-08T12:37:30;20.74;32.62
75088;HTU21D;63664;44.868;40.600;2023-03-08T12:40:05;20.69;32.74
75088;HTU21D;63664;44.868;40.600;2023-03-08T12:42:36;20.60;32.52
75088;HTU21D;63664;44.868;40.600;2023-03-08T12:45:32;20.58;32.69
75088;HTU21D;63664;44.868;40.600;2023-03-08T12:50:44;20.51;32.35
75088;HTU21D;63664;44.868;40.600;2023-03-08T12:58:33;20.44;32.69
75088;HTU21D;63664;44.868;40.600;2023-03-08T13:03:55;20.21;32.64
75088;HTU21D;63664;44.868;40.600;2023-03-08T13:09:05;19.94;32.83
75088;HTU21D;63664;44.868;40.600;2023-03-08T13:11:47;0.00;32.93
75088;HTU21D;63664;44.868;40.600;2023-03-08T13:14:40;19.71;33.18
75088;HTU21D;63664;44.868;40.600;2023-03-08T13:17:38;19.60;33.31
75088;HTU21D;63664;44.868;40.600;2023-03-08T13:20:10;19.57;33.47
75088;HTU21D;63664;44.868;40.600;2023-03-08T13:22:52;19.50;33.51
75088;HTU21D;63664;44.868;40.600;2023-03-08T13:25:39;19.45;33.69
75088;HTU21D;63664;44.868;40.600;2023-03-08T13:28:16;19.43;33.63
75088;HTU21D;63664;44.868;40.600;2023-03-08T13:30:54;19.41;33.67
75088;HTU21D;63664;44.868;40.600;2023-03-08T13:33:29;19.33;33.53
75088;HTU21D;63664;44.868;40.600;2023-03-08T13:35:58;19.28;33.68
75088;HTU21D;63664;44.868;40.600;2023-03-08T13:38:29;19.16;33.65
75088;HTU21D;63664;44.868;40.600;2023-03-08T13:40:57;19.07;33.92
75088;HTU21D;63664;44.868;40.600;2023-03-08T13:43:27;19.06;34.12
75088;HTU21D;63664;44.868;40.600;2023-03-08T13:45:59;19.01;34.05
75088;HTU21D;63664;44.868;40.600;2023-03-08T13:48:34;18.96;34.27
75088;HTU21D;63664;44.868;40.600;2023-03-08T13:51:01;18.85;34.49
75088;HTU21D;63664;44.868;40.600;2023-03-08T13:53:34;18.76;34.56
75088;HTU21D;63664;44.868;40.600;2023-03-08T13:56:07;18.70;34.59
75088;HTU21D;63664;44.868;40.600;2023-03-08T13:58:50;18.62;34.73
75088;HTU21D;63664;44.868;40.600;2023-03-08T14:01:27;18.53;34.94
75088;HTU21D;63664;44.868;40.600;2023-03-08T14:03:56;18.47;35.07
75088;HTU21D;63664;44.868;40.600;2023-03-08T14:06:27;18.36;35.15
75088;HTU21D;63664;44.868;40.600;2023-03-08T14:08:57;18.26;35.35
75088;HTU21D;63664;44.868;40.600;2023-03-08T14:11:37;18.21;35.44
75088;HTU21D;63664;44.868;40.600;2023-03-08T14:14:14;18.12;35.53
75088;HTU21D;63664;44.868;40.600;2023-03-08T14:16:45;18.06;35.82
75088;HTU21D;63664;44.868;40.600;2023-03-08T14:19:29;18.00;36.04
75088;HTU21D;63664;44.868;40.600;2023-03-08T14:24:34;17.85;36.12
75088;HTU21D;63664;44.868;40.600;2023-03-08T14:27:04;17.80;36.28
75088;HTU21D;63664;44.868;40.600;2023-03-08T14:29:36;17.75;36.53
75088;HTU21D;63664;44.868;40.600;2023-03-08T14:34:43;17.58;37.21
75088;HTU21D;63664;44.868;40.600;2023-03-08T14:37:21;17.48;37.56
75088;HTU21D;63664;44.868;40.600;2023-03-08T14:39:53;17.36;38.00
75088;HTU21D;63664;44.868;40.600;2023-03-08T14:42:32;17.26;38.54
75088;HTU21D;63664;44.868;40.600;2023-03-08T14:48:13;17.06;39.42
75088;HTU21D;63664;44.868;40.600;2023-03-08T14:50:59;16.95;39.65
75088;HTU21D;63664;44.868;40.600;2023-03-08T14:53:38;16.86;39.79
75088;HTU21D;63664;44.868;40.600;2023-03-08T14:56:14;16.75;40.02
75088;HTU21D;63664;44.868;40.600;2023-03-08T14:58:46;16.64;40.23
75088;HTU21D;63664;44.868;40.600;2023-03-08T15:01:35;16.54;40.54
75088;HTU21D;63664;44.868;40.600;2023-03-08T15:04:25;16.43;40.96
75088;HTU21D;63664;44.868;40.600;2023-03-08T15:06:53;16.32;41.02
75088;HTU21D;63664;44.868;40.600;2023-03-08T15:09:23;16.24;41.13
75088;HTU21D;63664;44.868;40.600;2023-03-08T15:11:52;16.12;41.42
75088;HTU21D;63664;44.868;40.600;2023-03-08T15:14:18;16.05;41.68
75088;HTU21D;63664;44.868;40.600;2023-03-08T15:16:45;15.99;41.90
75088;HTU21D;63664;44.868;40.600;2023-03-08T15:19:18;15.90;42.09
75088;HTU21D;63664;44.868;40.600;2023-03-08T15:21:47;15.82;42.17
75088;HTU21D;63664;44.868;40.600;2023-03-08T15:24:15;15.73;42.28
75088;HTU21D;63664;44.868;40.600;2023-03-08T15:26:43;15.61;42.46
75088;HTU21D;63664;44.868;40.600;2023-03-08T15:29:24;15.47;42.86
75088;HTU21D;63664;44.868;40.600;2023-03-08T15:31:52;15.34;43.06
75088;HTU21D;63664;44.868;40.600;2023-03-08T15:34:21;15.26;43.06
75088;HTU21D;63664;44.868;40.600;2023-03-08T15:36:48;15.17;43.21
75088;HTU21D;63664;44.868;40.600;2023-03-08T15:39:20;15.10;43.33
75088;HTU21D;63664;44.868;40.600;2023-03-08T15:41:49;15.02;43.42
75088;HTU21D;63664;44.868;40.600;2023-03-08T15:44:18;14.95;43.58
75088;HTU21D;63664;44.868;40.600;2023-03-08T15:46:47;14.86;43.77
75088;HTU21D;63664;44.868;40.600;2023-03-08T15:49:16;14.77;43.96
75088;HTU21D;63664;44.868;40.600;2023-03-08T15:51:45;14.67;44.19
75088;HTU21D;63664;44.868;40.600;2023-03-08T15:54:11;14.60;44.29
75088;HTU21D;63664;44.868;40.600;2023-03-08T15:56:38;14.53;44.32
75088;HTU21D;63664;44.868;40.600;2023-03-08T15:59:04;14.48;44.37
75088;HTU21D;63664;44.868;40.600;2023-03-08T16:01:31;14.39;44.48
75088;HTU21D;63664;44.868;40.600;2023-03-08T16:04:04;14.30;44.76
75088;HTU21D;63664;44.868;40.600;2023-03-08T16:06:30;14.23;45.16
75088;HTU21D;63664;44.868;40.600;2023-03-08T16:08:56;14.15;45.38
75088;HTU21D;63664;44.868;40.600;2023-03-08T16:11:25;14.08;45.58
75088;HTU21D;63664;44.868;40.600;2023-03-08T16:13:52;14.00;45.90
75088;HTU21D;63664;44.868;40.600;2023-03-08T16:16:21;13.93;46.19
75088;HTU21D;63664;44.868;40.600;2023-03-08T16:18:47;13.86;46.37
75088;HTU21D;63664;44.868;40.600;2023-03-08T16:21:14;13.80;46.54
75088;HTU21D;63664;44.868;40.600;2023-03-08T16:23:42;13.75;46.70
75088;HTU21D;63664;44.868;40.600;2023-03-08T16:26:16;13.66;46.83
75088;HTU21D;63664;44.868;40.600;2023-03-08T16:28:48;13.60;47.10
75088;HTU21D;63664;44.868;40.600;2023-03-08T16:31:15;13.53;47.22
75088;HTU21D;63664;44.868;40.600;2023-03-08T16:33:48;13.46;47.40
75088;HTU21D;63664;44.868;40.600;2023-03-08T16:36:17;13.39;47.66
75088;HTU21D;63664;44.868;40.600;2023-03-08T16:38:48;13.33;47.88
75088;HTU21D;63664;44.868;40.600;2023-03-08T16:41:17;13.26;48.02
75088;HTU21D;63664;44.868;40.600;2023-03-08T16:43:44;13.27;47.89
75088;HTU21D;63664;44.868;40.600;2023-03-08T16:46:19;13.20;48.06
75088;HTU21D;63664;44.868;40.600;2023-03-08T16:48:47;13.17;48.35
75088;HTU21D;63664;44.868;40.600;2023-03-08T16:51:20;13.14;48.51
75088;HTU21D;63664;44.868;40.600;2023-03-08T16:53:48;13.09;48.66
75088;HTU21D;63664;44.868;40.600;2023-03-08T16:56:23;13.06;48.66
75088;HTU21D;63664;44.868;40.600;2023-03-08T16:58:50;13.05;48.62
75088;HTU21D;63664;44.868;40.600;2023-03-08T17:01:18;13.02;48.53
75088;HTU21D;63664;44.868;40.600;2023-03-08T17:03:44;13.00;48.38
75088;HTU21D;63664;44.868;40.600;2023-03-08T17:06:16;12.96;48.43